Time;durP1;ratioP1;P1;durP2;ratioP2;P2;SDS_P1;SDS_P2;PMS_P1;PMS_P2;Temp;Humidity;BMP_temperature;BMP_pressure;BME280_temperature;BME280_humidity;BME280_pressure;Samples;Min_cycle;Max_cycle;Signal;HPM_P1;HPM_P2
2020/12/24 00:02:22;;;;;;;32.30;16.50;;;;;;;3.89;78.40;96420.34;1758058;80;21047;-55
2020/12/24 00:04:50;;;;;;;30.62;15.98;;;;;;;3.93;77.61;96413.70;1774704;80;21127;-54
2020/12/24 00:07:18;;;;;;;19.57;11.80;;;;;;;3.92;77.12;96418.91;1774164;80;23523;-54
2020/12/24 00:09:46;;;;;;;19.98;10.50;;;;;;;3.90;77.07;96420.27;1756839;80;21580;-54
2020/12/24 00:12:14;;;;;;;18.15;9.20;;;;;;;3.90;77.40;96416.84;1753672;81;21076;-54
2020/12/24 00:14:42;;;;;;;12.85;7.40;;;;;;;3.84;77.28;96412.84;1776427;79;21490;-54
2020/12/24 00:17:10;;;;;;;17.45;8.28;;;;;;;3.78;77.26;96408.84;1759976;80;21100;-54
2020/12/24 00:19:37;;;;;;;12.00;7.15;;;;;;;3.81;77.20;96412.98;1756992;80;21365;-54
2020/12/24 00:22:05;;;;;;;8.33;5.25;;;;;;;3.88;77.24;96416.91;1740693;82;21076;-54
2020/12/24 00:24:33;;;;;;;8.48;5.65;;;;;;;3.99;77.00;96410.01;1759715;81;21064;-54
2020/12/24 00:27:01;;;;;;;12.18;7.90;;;;;;;4.03;76.53;96403.84;1759731;81;21603;-54
2020/12/24 00:29:28;;;;;;;8.73;6.08;;;;;;;3.99;76.07;96403.13;1744627;81;21136;-54
2020/12/24 00:31:56;;;;;;;11.25;7.10;;;;;;;3.91;76.15;96407.79;1759880;81;21195;-54
2020/12/24 00:34:24;;;;;;;15.38;8.53;;;;;;;3.86;76.40;96404.18;1787738;80;21084;-54
2020/12/24 00:36:52;;;;;;;16.87;8.70;;;;;;;3.90;76.47;96392.46;1744323;81;21148;-54
2020/12/24 00:39:20;;;;;;;15.30;9.73;;;;;;;3.96;76.58;96388.33;1780573;80;21154;-54
2020/12/24 00:41:48;;;;;;;19.98;12.25;;;;;;;3.98;76.38;96387.37;1740992;81;21176;-54
2020/12/24 00:44:15;;;;;;;17.73;8.60;;;;;;;3.94;76.23;96378.13;1779549;80;21379;-54
2020/12/24 00:46:43;;;;;;;10.30;6.12;;;;;;;3.85;76.18;96374.73;1789596;80;21052;-54
2020/12/24 00:49:12;;;;;;;5.92;4.30;;;;;;;3.82;76.35;96371.84;1788534;80;21116;-54
2020/12/24 00:51:40;;;;;;;;;;;;;;;3.83;76.44;96363.69;1776869;80;21107;-54
2020/12/24 00:54:08;;;;;;;4.00;3.00;;;;;;;3.90;77.01;96365.51;1790062;80;20500;-54
2020/12/24 00:56:36;;;;;;;4.20;3.05;;;;;;;3.99;77.11;96367.19;1777940;80;21422;-54
2020/12/24 00:59:06;;;;;;;7.05;3.90;;;;;;;4.06;77.29;96358.73;1774472;80;21092;-55
2020/12/24 01:01:34;;;;;;;5.55;3.17;;;;;;;4.12;77.03;96361.48;1734217;80;21072;-55
2020/12/24 01:04:02;;;;;;;5.80;3.27;;;;;;;4.13;76.98;96362.69;1724296;81;21156;-54
2020/12/24 01:06:29;;;;;;;7.42;3.47;;;;;;;4.19;76.95;96353.41;1760787;80;21123;-54
2020/12/24 01:08:57;;;;;;;9.03;4.17;;;;;;;4.24;77.01;96342.89;1771645;80;23534;-53
2020/12/24 01:11:28;;;;;;;4.83;3.80;;;;;;;4.27;76.97;96336.78;1768365;79;21121;-53
2020/12/24 01:13:56;;;;;;;4.78;3.60;;;;;;;4.32;76.99;96333.53;1767785;80;21049;-55
2020/12/24 01:16:24;;;;;;;6.70;4.20;;;;;;;4.37;76.79;96331.56;1788714;79;21120;-55
2020/12/24 01:18:54;;;;;;;6.65;4.12;;;;;;;4.45;76.51;96326.05;1766586;79;21061;-54
2020/12/24 01:21:21;;;;;;;10.10;6.25;;;;;;;4.52;76.17;96323.10;1766560;80;21420;-55
2020/12/24 01:23:49;;;;;;;6.03;4.10;;;;;;;4.61;75.76;96322.61;1786013;80;21157;-54
2020/12/24 01:26:18;;;;;;;5.60;3.70;;;;;;;4.69;75.45;96320.95;1781752;79;21176;-54
2020/12/24 01:28:45;;;;;;;5.97;4.50;;;;;;;4.67;75.29;96312.92;1764629;80;21080;-54
2020/12/24 01:31:13;;;;;;;6.12;4.65;;;;;;;4.67;75.13;96312.92;1775527;78;21462;-55
2020/12/24 01:33:41;;;;;;;18.90;10.48;;;;;;;4.63;75.02;96308.41;1785695;79;21379;-54
2020/12/24 01:36:09;;;;;;;19.98;12.80;;;;;;;4.55;75.46;96306.22;1771775;80;21117;-54
2020/12/24 01:38:40;;;;;;;25.17;15.23;;;;;;;4.44;75.77;96309.81;1784035;80;21049;-54
2020/12/24 01:41:08;;;;;;;16.77;11.00;;;;;;;4.34;76.39;96295.31;1785053;80;21185;-55
2020/12/24 01:43:36;;;;;;;15.43;10.32;;;;;;;4.27;76.94;96290.09;1743161;80;21041;-54
2020/12/24 01:46:04;;;;;;;9.13;6.10;;;;;;;4.17;77.74;96283.76;1790072;78;21187;-54
2020/12/24 01:48:32;;;;;;;8.20;5.72;;;;;;;4.15;78.86;96280.45;1758635;80;21141;-54
2020/12/24 01:50:59;;;;;;;10.63;6.90;;;;;;;4.16;78.96;96282.09;1751551;80;21580;-54
2020/12/24 01:53:27;;;;;;;8.25;6.00;;;;;;;4.20;79.06;96276.73;1751390;80;21191;-55
2020/12/24 01:55:56;;;;;;;7.35;5.50;;;;;;;4.21;79.04;96277.55;1688727;80;21911;-54
2020/12/24 01:58:23;;;;;;;3.87;3.27;;;;;;;4.25;79.13;96267.52;1780216;80;21276;-54
2020/12/24 02:00:51;;;;;;;6.92;4.95;;;;;;;4.31;79.13;96261.22;1778577;80;21119;-54
2020/12/24 02:03:20;;;;;;;7.78;4.42;;;;;;;4.45;79.08;96260.07;1774428;80;21107;-55
2020/12/24 02:05:51;;;;;;;5.10;3.95;;;;;;;4.64;78.69;96262.53;1756698;80;21131;-55
2020/12/24 02:08:19;;;;;;;5.85;4.33;;;;;;;4.82;78.39;96262.46;1771567;79;21131;-55
2020/12/24 02:10:47;;;;;;;5.42;4.10;;;;;;;5.00;77.97;96259.37;1777806;80;21377;-55
2020/12/24 02:13:15;;;;;;;11.83;6.75;;;;;;;5.13;77.40;96243.65;1761643;80;21123;-55
2020/12/24 02:15:43;;;;;;;7.10;4.78;;;;;;;5.19;76.93;96240.75;1784070;80;21043;-54
2020/12/24 02:18:10;;;;;;;9.33;6.83;;;;;;;5.22;76.56;96229.01;1780951;80;21130;-55
2020/12/24 02:20:45;;;;;;;10.40;6.53;;;;;;;5.18;76.14;96229.26;1761935;80;21186;-55
2020/12/24 02:23:13;;;;;;;12.90;7.35;;;;;;;5.08;76.07;96227.20;1753005;80;21203;-55
2020/12/24 02:25:41;;;;;;;9.43;6.58;;;;;;;4.95;75.96;96218.47;1790985;80;21112;-55
2020/12/24 02:28:09;;;;;;;8.20;4.70;;;;;;;4.86;76.12;96212.09;1764176;80;21139;-54
2020/12/24 02:30:37;;;;;;;5.20;4.37;;;;;;;4.78;76.19;96197.07;1787792;80;21472;-54
2020/12/24 02:33:07;;;;;;;7.60;5.42;;;;;;;4.71;76.80;96188.05;1788986;80;21469;-55
2020/12/24 02:35:34;;;;;;;8.55;4.60;;;;;;;4.65;76.85;96180.66;1779745;80;21515;-55
2020/12/24 02:38:03;;;;;;;6.92;5.05;;;;;;;4.60;76.81;96179.64;1777250;80;21088;-54
2020/12/24 02:40:30;;;;;;;7.37;5.43;;;;;;;4.48;76.88;96172.56;1790148;80;21131;-55
2020/12/24 02:42:58;;;;;;;10.75;5.92;;;;;;;4.48;76.88;96172.56;1764132;80;21970;-55
2020/12/24 02:45:26;;;;;;;7.55;5.17;;;;;;;4.34;76.80;96167.31;1789553;79;21068;-55
2020/12/24 02:47:54;;;;;;;6.80;5.05;;;;;;;4.24;77.06;96167.81;1787328;79;21190;-54
2020/12/24 02:50:21;;;;;;;9.63;6.33;;;;;;;4.20;77.59;96169.33;1770036;80;21107;-55
2020/12/24 02:52:49;;;;;;;8.28;6.72;;;;;;;4.20;77.98;96170.62;1748536;80;21551;-55
2020/12/24 02:55:17;;;;;;;8.23;6.40;;;;;;;4.22;77.95;96165.77;1790881;80;21476;-55
2020/12/24 02:57:45;;;;;;;12.47;7.63;;;;;;;4.21;77.99;96165.41;1764149;80;21047;-55
2020/12/24 03:00:13;;;;;;;6.17;4.42;;;;;;;4.20;79.08;96157.78;1783723;80;21364;-55
2020/12/24 03:02:42;;;;;;;5.97;4.30;;;;;;;4.23;79.60;96149.45;1759936;80;21147;-55
2020/12/24 03:05:10;;;;;;;10.00;5.67;;;;;;;4.33;79.53;96149.80;1775687;80;21107;-54
2020/12/24 03:07:38;;;;;;;9.27;6.67;;;;;;;4.47;80.10;96145.67;1761938;80;21185;-55
2020/12/24 03:10:07;;;;;;;9.98;6.03;;;;;;;4.61;79.73;96147.88;1790945;80;21048;-55
2020/12/24 03:12:35;;;;;;;5.22;3.33;;;;;;;4.78;79.24;96142.27;1763391;80;22289;-55
2020/12/24 03:15:03;;;;;;;4.10;3.02;;;;;;;5.04;79.12;96129.73;1776591;79;21083;-55
2020/12/24 03:17:31;;;;;;;1.20;1.05;;;;;;;5.51;77.82;96137.80;1777379;79;21065;-54
2020/12/24 03:20:00;;;;;;;0.82;0.50;;;;;;;5.94;76.51;96126.27;1774266;80;21211;-55
2020/12/24 03:22:28;;;;;;;0.47;0.33;;;;;;;6.39;75.08;96115.89;1759672;80;21179;-55
2020/12/24 03:24:56;;;;;;;0.10;0.10;;;;;;;6.84;74.15;96111.35;1764551;80;22162;-55
2020/12/24 03:27:24;;;;;;;0.50;0.50;;;;;;;7.18;72.91;96115.19;1750393;82;21072;-55
2020/12/24 03:29:52;;;;;;;2.52;2.25;;;;;;;7.47;71.50;96111.19;1774407;80;21136;-55
2020/12/24 03:32:19;;;;;;;9.45;6.15;;;;;;;7.70;71.28;96110.14;1762404;80;21123;-55
2020/12/24 03:34:47;;;;;;;9.85;6.90;;;;;;;7.78;70.50;96104.00;1757068;80;21503;-55
2020/12/24 03:37:15;;;;;;;8.88;6.17;;;;;;;7.73;70.33;96113.81;1763476;80;21364;-55
2020/12/24 03:39:42;;;;;;;5.60;4.03;;;;;;;7.68;69.95;96121.01;1780158;79;21075;-55
2020/12/24 03:42:10;;;;;;;4.03;3.52;;;;;;;7.54;69.83;96123.23;1768376;80;21093;-55
2020/12/24 03:44:38;;;;;;;6.87;4.90;;;;;;;7.35;70.22;96105.52;1772484;80;21607;-55
2020/12/24 03:47:06;;;;;;;5.95;4.92;;;;;;;7.23;70.72;96101.99;1767735;80;21044;-55
2020/12/24 03:49:34;;;;;;;8.90;6.83;;;;;;;7.22;71.07;96108.09;1751119;80;21492;-55
2020/12/24 03:52:02;;;;;;;5.05;4.15;;;;;;;7.21;71.06;96098.69;1755538;80;21596;-55
2020/12/24 03:54:29;;;;;;;4.40;3.80;;;;;;;7.29;71.08;96108.53;1781685;79;21123;-55
2020/12/24 03:56:57;;;;;;;7.70;5.05;;;;;;;7.40;70.69;96101.36;1766167;80;21132;-55
2020/12/24 03:59:25;;;;;;;5.53;4.30;;;;;;;7.56;70.50;96109.75;1753179;80;21061;-55
2020/12/24 04:01:53;;;;;;;3.50;3.20;;;;;;;7.69;69.82;96107.18;1762075;80;21256;-55
2020/12/24 04:04:20;;;;;;;0.88;0.80;;;;;;;7.84;69.46;96096.28;1781467;79;21119;-55
2020/12/24 04:06:48;;;;;;;1.60;0.30;;;;;;;7.98;68.74;96074.70;1761810;80;21175;-55
2020/12/24 04:09:15;;;;;;;0.20;0.20;;;;;;;8.15;68.25;96097.61;1781517;80;21505;-55
2020/12/24 04:11:44;;;;;;;0.40;0.40;;;;;;;8.31;67.62;96085.75;1769089;80;21132;-55
2020/12/24 04:14:12;;;;;;;0.50;0.30;;;;;;;8.46;67.49;96081.30;1749214;80;21444;-55
2020/12/24 04:16:39;;;;;;;0.40;0.40;;;;;;;8.58;67.01;96093.35;1778993;80;21158;-55
2020/12/24 04:19:07;;;;;;;0.40;0.30;;;;;;;8.68;67.48;96060.38;1759959;81;21087;-55
2020/12/24 04:21:35;;;;;;;0.80;0.65;;;;;;;8.74;67.05;96072.89;1763563;80;21068;-55
2020/12/24 04:24:02;;;;;;;0.50;0.50;;;;;;;8.78;67.30;96073.86;1759729;81;21056;-55
2020/12/24 04:26:30;;;;;;;0.40;0.40;;;;;;;8.78;66.88;96073.86;1765004;79;21458;-55
2020/12/24 04:28:59;;;;;;;0.40;0.30;;;;;;;8.80;66.69;96081.51;1759759;81;21979;-54
2020/12/24 04:31:26;;;;;;;0.85;0.60;;;;;;;8.81;66.35;96087.84;1759944;80;21087;-56
2020/12/24 04:33:55;;;;;;;0.50;0.30;;;;;;;8.84;66.22;96076.45;1734606;81;21083;-55
2020/12/24 04:36:22;;;;;;;0.30;0.25;;;;;;;8.89;65.94;96096.83;1787098;80;21795;-55
2020/12/24 04:38:50;;;;;;;0.37;0.37;;;;;;;8.91;65.50;96084.60;1763210;80;22766;-55
2020/12/24 04:41:18;;;;;;;0.50;0.50;;;;;;;8.93;65.55;96098.25;1760442;80;21162;-55
2020/12/24 04:43:45;;;;;;;0.53;0.50;;;;;;;8.93;65.74;96092.63;1746506;80;21055;-55
2020/12/24 04:46:13;;;;;;;1.25;0.90;;;;;;;8.93;65.46;96106.86;1786692;80;21071;-54
2020/12/24 04:48:41;;;;;;;0.50;0.50;;;;;;;8.94;65.54;96093.44;1791083;80;21135;-55
2020/12/24 04:51:11;;;;;;;0.50;0.50;;;;;;;8.94;65.23;96101.20;1776317;80;21335;-55
2020/12/24 04:53:39;;;;;;;0.55;0.55;;;;;;;8.94;65.24;96096.84;1757800;80;21120;-55
2020/12/24 04:56:08;;;;;;;0.88;0.78;;;;;;;8.95;65.46;96102.39;1790939;80;21140;-55
2020/12/24 04:58:36;;;;;;;0.53;0.50;;;;;;;8.95;65.54;96102.39;1728981;81;21532;-56
2020/12/24 05:01:04;;;;;;;0.60;0.60;;;;;;;8.93;65.23;96102.98;1783871;80;21052;-55
2020/12/24 05:03:32;;;;;;;0.70;0.70;;;;;;;8.91;65.17;96098.36;1788300;80;21373;-56
2020/12/24 05:06:00;;;;;;;0.90;0.83;;;;;;;8.89;65.96;96103.30;1767006;80;21179;-55
2020/12/24 05:08:29;;;;;;;0.80;0.80;;;;;;;8.89;65.96;96103.30;1782844;80;21104;-56
2020/12/24 05:11:04;;;;;;;0.70;0.70;;;;;;;8.91;66.05;96110.47;1788465;80;21049;-55
2020/12/24 05:13:32;;;;;;;0.75;0.70;;;;;;;8.88;65.92;96100.34;1763173;80;21548;-54
2020/12/24 05:16:14;;;;;;;1.00;0.90;;;;;;;8.88;65.75;96107.66;1779229;80;21203;-54
2020/12/24 05:18:42;;;;;;;0.90;0.90;;;;;;;8.86;65.16;96093.17;1768096;80;21160;-54
2020/12/24 05:21:10;;;;;;;1.07;0.98;;;;;;;8.86;65.21;96082.34;1756703;80;21124;-54
2020/12/24 05:23:38;;;;;;;2.92;1.37;;;;;;;8.89;65.04;96086.48;1777233;80;21175;-54
2020/12/24 05:26:19;;;;;;;1.15;1.00;;;;;;;8.90;64.83;96073.88;1778303;80;21056;-54
2020/12/24 05:28:47;;;;;;;1.00;1.00;;;;;;;8.89;64.63;96087.78;1743726;81;21375;-54
2020/12/24 05:31:34;;;;;;;1.10;1.10;;;;;;;8.89;64.64;96054.14;1770298;80;21572;-55
2020/12/24 05:34:02;;;;;;;1.10;1.00;;;;;;;8.89;64.62;96053.66;1778787;79;21604;-54
2020/12/24 05:36:31;;;;;;;1.00;0.90;;;;;;;8.88;64.74;96061.53;1759156;80;21107;-55
2020/12/24 05:38:58;;;;;;;1.35;1.07;;;;;;;8.88;64.91;96064.12;1779633;80;21128;-55
2020/12/24 05:41:37;;;;;;;1.40;1.30;;;;;;;8.89;64.80;96059.31;1766374;80;21198;-54
2020/12/24 05:44:11;;;;;;;1.30;1.20;;;;;;;8.90;64.75;96054.03;1744108;80;21076;-55
2020/12/24 05:46:49;;;;;;;1.15;1.05;;;;;;;8.90;64.74;96051.89;1734883;80;21560;-55
2020/12/24 05:49:19;;;;;;;0.80;0.80;;;;;;;8.90;64.81;96067.41;1781415;80;21060;-56
2020/12/24 05:52:00;;;;;;;1.10;1.00;;;;;;;8.89;65.14;96069.19;1758876;80;21139;-55
2020/12/24 05:54:30;;;;;;;1.05;1.00;;;;;;;8.89;65.28;96049.78;1776500;80;21596;-55
2020/12/24 05:56:59;;;;;;;1.00;0.90;;;;;;;8.89;65.37;96047.67;1768023;80;21178;-55
2020/12/24 05:59:29;;;;;;;1.45;1.35;;;;;;;8.88;65.42;96058.50;1769393;80;21044;-56
2020/12/24 06:02:08;;;;;;;0.98;0.93;;;;;;;8.87;65.70;96047.78;1728664;81;21572;-55
2020/12/24 06:04:51;;;;;;;0.78;0.70;;;;;;;8.88;65.80;96051.19;1750755;80;21056;-54
2020/12/24 06:07:30;;;;;;;0.80;0.80;;;;;;;8.86;65.35;96053.88;1755045;79;21421;-55
2020/12/24 06:10:10;;;;;;;1.12;1.00;;;;;;;8.87;65.50;96055.55;1761638;80;21151;-54
2020/12/24 06:12:52;;;;;;;0.70;0.70;;;;;;;8.88;65.50;96052.03;1774329;79;21160;-55
2020/12/24 06:15:20;;;;;;;0.70;0.70;;;;;;;8.88;65.42;96046.02;1750610;80;21120;-55
2020/12/24 06:17:48;;;;;;;1.57;1.47;;;;;;;8.88;65.16;96040.84;1711780;82;21194;-55
2020/12/24 06:20:19;;;;;;;0.90;0.70;;;;;;;8.87;64.85;96034.84;1752061;80;21372;-55
2020/12/24 06:22:47;;;;;;;0.65;0.65;;;;;;;8.88;64.11;96023.58;1756922;80;21083;-55
2020/12/24 06:25:15;;;;;;;0.80;0.80;;;;;;;8.91;64.33;96031.09;1759892;79;21057;-56
2020/12/24 06:27:48;;;;;;;0.60;0.60;;;;;;;8.93;64.49;96028.39;1775384;79;21076;-55
2020/12/24 06:30:26;;;;;;;0.70;0.57;;;;;;;8.96;64.26;96035.48;1751833;80;21048;-55
2020/12/24 06:32:55;;;;;;;1.20;1.10;;;;;;;9.02;64.00;96036.78;1751463;80;22260;-55
2020/12/24 06:35:38;;;;;;;0.93;0.87;;;;;;;9.03;64.34;96031.50;1773681;80;21496;-55
2020/12/24 06:38:08;;;;;;;3.42;3.12;;;;;;;9.03;64.08;96022.92;1759596;80;21065;-55
2020/12/24 06:40:37;;;;;;;2.60;2.40;;;;;;;9.02;64.36;96041.96;1760394;80;21485;-55
2020/12/24 06:43:08;;;;;;;1.42;1.32;;;;;;;9.03;64.73;96038.45;1750548;82;21059;-55
2020/12/24 06:45:39;;;;;;;0.78;0.78;;;;;;;9.06;64.63;96042.08;1750582;82;22242;-55
2020/12/24 06:48:16;;;;;;;0.57;0.50;;;;;;;9.06;64.84;96042.55;1757952;79;21064;-55
2020/12/24 06:51:04;;;;;;;0.62;0.60;;;;;;;9.03;64.76;96039.27;1784404;80;21059;-55
2020/12/24 06:53:37;;;;;;;1.35;0.90;;;;;;;9.03;65.00;96019.86;1750591;80;21072;-55
2020/12/24 06:56:19;;;;;;;1.25;0.88;;;;;;;9.02;65.12;96036.31;1757141;79;21040;-55
2020/12/24 06:59:03;;;;;;;1.10;0.85;;;;;;;9.01;65.48;96026.06;1750539;81;21353;-55
2020/12/24 07:01:40;;;;;;;0.93;0.50;;;;;;;9.00;65.36;96025.73;1734581;82;21078;-55
2020/12/24 07:04:08;;;;;;;0.80;0.80;;;;;;;8.94;64.66;96002.88;1757939;81;21094;-55
2020/12/24 07:06:50;;;;;;;0.82;0.82;;;;;;;8.91;64.99;96002.62;1678490;82;21506;-55
2020/12/24 07:09:30;;;;;;;0.80;0.80;;;;;;;8.91;64.86;95989.69;1704733;84;21519;-54
2020/12/24 07:12:00;;;;;;;0.68;0.62;;;;;;;8.93;64.77;96002.06;1735441;82;21382;-54
2020/12/24 07:14:31;;;;;;;1.07;0.80;;;;;;;8.96;64.58;95993.23;1735431;82;21094;-54
2020/12/24 07:17:10;;;;;;;1.00;0.93;;;;;;;8.97;64.21;95985.36;1724048;82;21074;-55
2020/12/24 07:19:41;;;;;;;1.42;1.25;;;;;;;9.01;64.33;95984.22;1689389;84;21076;-54
2020/12/24 07:22:13;;;;;;;1.60;1.45;;;;;;;9.03;64.15;95982.81;1730960;82;21462;-55
2020/12/24 07:24:40;;;;;;;1.60;1.50;;;;;;;9.02;64.34;95983.26;1735375;81;22665;-54
2020/12/24 07:27:08;;;;;;;1.37;1.20;;;;;;;9.05;64.35;95995.16;1739369;82;21081;-54
2020/12/24 07:29:36;;;;;;;0.90;0.90;;;;;;;9.10;64.29;95996.12;1743028;82;21063;-54
2020/12/24 07:32:06;;;;;;;1.22;0.90;;;;;;;9.14;64.31;95994.94;1743024;81;21155;-54
2020/12/24 07:34:35;;;;;;;1.50;1.40;;;;;;;9.16;64.20;96008.13;1727988;83;21156;-54
2020/12/24 07:37:04;;;;;;;1.90;1.30;;;;;;;9.19;64.18;96006.61;1765997;81;21347;-54
2020/12/24 07:39:32;;;;;;;1.20;1.10;;;;;;;9.21;64.13;96006.03;1766612;81;21577;-55
2020/12/24 07:42:00;;;;;;;1.30;1.20;;;;;;;9.26;64.33;96014.75;1758356;81;21617;-55
2020/12/24 07:44:27;;;;;;;1.55;1.45;;;;;;;9.29;64.39;95992.97;1751802;81;21524;-55
2020/12/24 07:47:03;;;;;;;1.17;1.07;;;;;;;9.30;64.14;95996.73;1744149;81;21063;-55
2020/12/24 07:49:30;;;;;;;1.77;1.67;;;;;;;9.35;64.11;95984.27;1704900;84;21225;-55
2020/12/24 07:51:58;;;;;;;1.62;1.42;;;;;;;9.40;63.85;96009.82;1768920;81;21481;-55
2020/12/24 07:54:30;;;;;;;0.87;0.87;;;;;;;9.48;63.94;95995.83;1768031;81;21199;-55
2020/12/24 07:56:58;;;;;;;1.40;1.30;;;;;;;9.57;63.04;95953.70;1758681;81;21056;-55
2020/12/24 07:59:25;;;;;;;1.12;1.00;;;;;;;9.73;62.85;95983.59;1767931;81;21469;-55
2020/12/24 08:02:05;;;;;;;1.47;1.37;;;;;;;9.89;62.36;95991.02;1764239;81;21832;-55
2020/12/24 08:04:33;;;;;;;1.22;1.12;;;;;;;10.02;62.06;95976.16;1763632;81;21165;-55
2020/12/24 08:07:01;;;;;;;2.20;1.15;;;;;;;10.11;61.95;95984.53;1769292;81;21152;-55
2020/12/24 08:09:31;;;;;;;1.50;1.40;;;;;;;10.13;61.71;95963.19;1767816;81;21223;-55
2020/12/24 08:11:59;;;;;;;2.40;2.20;;;;;;;10.09;61.92;95992.87;1769039;81;21076;-55
2020/12/24 08:14:29;;;;;;;3.07;2.87;;;;;;;10.00;62.23;95991.02;1741024;81;21344;-55
2020/12/24 08:17:21;;;;;;;1.20;1.20;;;;;;;9.96;62.56;95979.22;1768738;81;21158;-55
2020/12/24 08:20:06;;;;;;;3.20;1.55;;;;;;;9.95;62.69;95972.41;1768670;81;21076;-55
2020/12/24 08:23:00;;;;;;;1.80;1.70;;;;;;;9.95;62.40;95984.08;1768658;81;21151;-54
2020/12/24 08:25:28;;;;;;;2.05;1.95;;;;;;;9.93;62.59;95982.05;1768906;81;21069;-54
2020/12/24 08:27:56;;;;;;;2.95;1.98;;;;;;;9.89;62.70;95989.73;1768651;81;21385;-54
2020/12/24 08:30:23;;;;;;;2.65;2.10;;;;;;;9.86;62.98;95995.95;1769096;81;21554;-56
2020/12/24 08:32:51;;;;;;;1.98;1.87;;;;;;;9.87;63.10;95999.39;1760610;81;21158;-54
2020/12/24 08:35:19;;;;;;;2.00;1.80;;;;;;;9.87;63.12;96002.80;1754035;81;21091;-55
2020/12/24 08:37:48;;;;;;;2.52;2.33;;;;;;;9.87;63.34;96006.69;1754212;81;21086;-54
2020/12/24 08:40:23;;;;;;;3.30;2.60;;;;;;;9.90;63.47;96001.72;1754054;81;21474;-55
2020/12/24 08:42:53;;;;;;;2.85;2.50;;;;;;;9.97;63.43;95983.48;1729085;81;21121;-55
2020/12/24 08:45:20;;;;;;;2.72;2.52;;;;;;;10.05;63.42;95965.56;1754149;81;21602;-55
2020/12/24 08:47:48;;;;;;;3.33;2.67;;;;;;;10.10;63.42;95977.69;1762358;81;21094;-55
2020/12/24 08:50:34;;;;;;;5.67;2.83;;;;;;;10.20;63.30;95975.19;1774589;80;21074;-55
2020/12/24 08:53:05;;;;;;;3.90;3.10;;;;;;;10.26;63.09;95972.12;1761129;81;22250;-55
2020/12/24 08:55:33;;;;;;;3.83;3.15;;;;;;;10.29;62.99;95967.96;1744466;81;21141;-55
2020/12/24 08:58:00;;;;;;;3.47;3.10;;;;;;;10.28;63.00;95945.59;1774747;80;21185;-55
2020/12/24 09:00:28;;;;;;;4.30;2.95;;;;;;;10.23;63.15;95949.48;1755654;81;21078;-55
2020/12/24 09:02:56;;;;;;;5.78;3.25;;;;;;;10.12;63.31;95905.80;1704836;84;21103;-55
2020/12/24 09:05:25;;;;;;;3.47;3.17;;;;;;;10.04;63.77;95929.39;1704987;84;21158;-56
2020/12/24 09:07:53;;;;;;;;;;;;;;;9.99;63.96;95944.00;1771455;81;21172;-55
2020/12/24 09:10:26;;;;;;;3.20;2.90;;;;;;;10.01;63.87;95941.30;1768885;81;20286;-55
2020/12/24 09:15:37;;;;;;;2.85;2.55;;;;;;;10.22;63.36;95967.30;1890064;75;28047;-55
2020/12/24 09:18:06;;;;;;;2.22;1.80;;;;;;;10.36;63.04;95945.02;1851044;77;21037;-55
2020/12/24 09:20:34;;;;;;;3.83;1.85;;;;;;;10.70;61.88;95952.66;1788493;80;21143;-55
2020/12/24 09:23:13;;;;;;;2.30;2.10;;;;;;;11.02;61.25;95966.09;1793912;80;21088;-55
2020/12/24 09:25:45;;;;;;;3.25;1.85;;;;;;;11.37;60.57;95963.64;1790850;80;21596;-56
2020/12/24 09:28:26;;;;;;;2.02;1.92;;;;;;;11.71;59.37;95962.06;1790792;80;21661;-55
2020/12/24 09:31:00;;;;;;;2.50;2.30;;;;;;;11.80;58.60;95944.40;1760692;80;21548;-55
2020/12/24 09:33:28;;;;;;;2.55;2.27;;;;;;;11.69;59.02;95944.48;1790693;80;21411;-55
2020/12/24 09:35:56;;;;;;;3.08;2.15;;;;;;;11.51;59.47;95941.68;1823077;78;21495;-55
2020/12/24 09:38:24;;;;;;;2.30;2.10;;;;;;;11.32;60.09;95964.50;1823108;78;20999;-55
2020/12/24 09:40:52;;;;;;;3.47;1.95;;;;;;;11.15;60.75;95965.42;1823168;78;21512;-55
2020/12/24 09:43:20;;;;;;;2.10;1.85;;;;;;;11.04;61.11;95965.00;1779807;80;21181;-55
2020/12/24 09:45:47;;;;;;;2.20;2.10;;;;;;;10.96;61.56;95956.20;1803430;79;21955;-55
2020/12/24 09:48:15;;;;;;;3.17;2.85;;;;;;;10.90;61.77;95957.52;1792123;79;21089;-55
2020/12/24 09:50:43;;;;;;;3.02;2.50;;;;;;;10.79;62.23;95914.30;1790264;80;21568;-55
2020/12/24 09:53:10;;;;;;;2.40;2.20;;;;;;;10.72;62.54;95955.95;1793481;80;21144;-55
2020/12/24 09:55:39;;;;;;;2.67;2.47;;;;;;;10.65;62.82;95941.84;1822443;78;26887;-55
2020/12/24 09:58:08;;;;;;;2.87;2.67;;;;;;;10.60;62.97;95925.83;1813041;78;21490;-55
2020/12/24 10:00:35;;;;;;;2.30;2.10;;;;;;;10.58;62.88;95923.35;1825962;78;21054;-55
2020/12/24 10:03:03;;;;;;;2.95;2.75;;;;;;;10.59;62.83;95898.23;1793084;79;21153;-55
2020/12/24 10:05:32;;;;;;;;;;;;;;;10.58;63.05;95914.27;1783609;80;21120;-55
2020/12/24 10:07:59;;;;;;;2.35;2.15;;;;;;;10.57;62.94;95884.56;1766619;80;20277;-55
2020/12/24 10:10:28;;;;;;;2.17;2.08;;;;;;;10.56;62.91;95895.42;1793634;80;21200;-55
2020/12/24 10:12:55;;;;;;;3.05;2.10;;;;;;;10.59;62.79;95872.28;1793460;79;21493;-55
2020/12/24 10:15:23;;;;;;;2.80;2.50;;;;;;;10.60;62.85;95899.40;1798063;79;21140;-55
2020/12/24 10:17:51;;;;;;;2.72;2.52;;;;;;;10.61;62.85;95900.24;1808789;78;21096;-54
2020/12/24 10:20:18;;;;;;;4.92;2.75;;;;;;;10.59;62.90;95896.48;1787676;80;21129;-54
2020/12/24 10:22:46;;;;;;;2.52;2.33;;;;;;;10.59;62.86;95891.73;1824254;78;21460;-54
2020/12/24 10:25:13;;;;;;;3.20;2.90;;;;;;;10.60;62.98;95890.32;1787378;80;21124;-56
2020/12/24 10:27:41;;;;;;;3.30;3.00;;;;;;;10.60;62.91;95881.24;1810353;78;21563;-54
2020/12/24 10:30:08;;;;;;;2.45;2.25;;;;;;;10.60;62.96;95886.91;1823659;78;21053;-54
2020/12/24 10:32:40;;;;;;;2.75;2.30;;;;;;;10.60;62.87;95877.84;1823339;78;21021;-54
2020/12/24 10:35:06;;;;;;;2.00;1.90;;;;;;;10.62;63.09;95868.14;1786984;80;21219;-54
2020/12/24 10:37:34;;;;;;;2.00;1.90;;;;;;;10.66;62.97;95880.75;1823743;78;21092;-54
2020/12/24 10:40:04;;;;;;;2.00;1.90;;;;;;;10.70;62.81;95883.09;1787034;80;21109;-54
2020/12/24 10:42:33;;;;;;;1.90;1.80;;;;;;;10.68;62.77;95873.65;1807197;78;21076;-55
2020/12/24 10:45:02;;;;;;;2.42;1.98;;;;;;;10.67;62.73;95868.13;1787004;80;21136;-54
2020/12/24 10:47:30;;;;;;;;;;;;;;;10.67;62.75;95866.84;1799209;79;22386;-54
2020/12/24 10:49:58;;;;;;;1.82;1.72;;;;;;;10.70;62.54;95851.47;1827869;78;20216;-54
2020/12/24 10:52:25;;;;;;;3.27;1.90;;;;;;;10.71;62.56;95858.77;1815696;79;21072;-54
2020/12/24 10:54:57;;;;;;;2.22;2.02;;;;;;;10.71;62.53;95838.02;1829228;78;21041;-54
2020/12/24 10:57:24;;;;;;;4.83;1.90;;;;;;;10.70;62.49;95845.47;1815554;79;21061;-54
2020/12/24 10:59:52;;;;;;;2.30;2.10;;;;;;;10.70;62.46;95842.88;1826716;78;21200;-54
2020/12/24 11:02:20;;;;;;;3.50;1.70;;;;;;;10.68;62.43;95835.22;1792291;79;21188;-54
2020/12/24 11:04:47;;;;;;;1.90;1.80;;;;;;;10.68;62.43;95800.19;1832039;78;21032;-54
2020/12/24 11:07:15;;;;;;;1.35;1.25;;;;;;;10.70;62.40;95811.25;1799409;79;21623;-55
2020/12/24 11:09:44;;;;;;;2.37;1.55;;;;;;;10.72;62.22;95792.48;1832064;78;21041;-55
2020/12/24 11:12:12;;;;;;;1.90;1.70;;;;;;;10.75;62.08;95800.50;1799313;79;21139;-55
2020/12/24 11:14:40;;;;;;;2.00;1.85;;;;;;;10.75;61.76;95803.09;1826690;78;21168;-54
2020/12/24 11:17:08;;;;;;;2.10;1.37;;;;;;;10.75;61.91;95800.50;1830600;78;21518;-54
2020/12/24 11:19:35;;;;;;;1.70;1.60;;;;;;;10.77;61.64;95808.52;1812373;79;21073;-54
2020/12/24 11:22:03;;;;;;;2.02;1.82;;;;;;;10.78;61.52;95805.44;1825403;78;21552;-54
2020/12/24 11:24:30;;;;;;;2.37;1.90;;;;;;;10.78;61.55;95793.76;1812372;79;21268;-54
2020/12/24 11:26:58;;;;;;;1.80;1.70;;;;;;;10.75;61.33;95783.15;1825282;78;21141;-54
2020/12/24 11:29:27;;;;;;;1.60;1.50;;;;;;;10.75;61.10;95787.04;1825481;78;21084;-55
2020/12/24 11:31:58;;;;;;;2.83;1.60;;;;;;;10.78;61.15;95782.89;1810373;79;21184;-55
2020/12/24 11:34:31;;;;;;;2.40;2.08;;;;;;;10.79;61.17;95799.28;1825152;78;21450;-55
2020/12/24 11:36:59;;;;;;;2.35;1.77;;;;;;;10.79;61.29;95783.25;1812311;78;21367;-55
2020/12/24 11:39:27;;;;;;;1.62;1.52;;;;;;;10.78;61.41;95781.59;1797546;78;21156;-55
2020/12/24 11:41:56;;;;;;;1.80;1.70;;;;;;;10.77;61.53;95758.38;1811420;79;21068;-55
2020/12/24 11:44:25;;;;;;;2.30;1.37;;;;;;;10.77;61.68;95771.34;1825438;78;21077;-55
2020/12/24 11:46:53;;;;;;;1.90;1.30;;;;;;;10.76;61.66;95758.86;1808135;79;21180;-56
2020/12/24 11:49:21;;;;;;;2.12;1.50;;;;;;;10.76;61.52;95769.23;1812524;79;21369;-54
2020/12/24 11:51:49;;;;;;;1.70;1.53;;;;;;;10.76;61.48;95760.16;1792976;80;21228;-54
2020/12/24 11:54:17;;;;;;;1.65;1.55;;;;;;;10.76;61.44;95785.29;1792813;80;21057;-54